sensor_id;sensor_type;location;lat;lon;timestamp;P1;durP1;ratioP1;P2;durP2;ratioP2
46983;SDS011;34732;52.112;9.366;2023-08-17T07:00:58;8.18;;;5.03;;
46983;SDS011;34732;52.112;9.366;2023-08-17T07:04:22;7.90;;;5.45;;
46983;SDS011;34732;52.112;9.366;2023-08-17T07:07:45;5.13;;;4.63;;
46983;SDS011;34732;52.112;9.366;2023-08-17T07:11:17;5.25;;;4.75;;
46983;SDS011;34732;52.112;9.366;2023-08-17T07:14:40;5.47;;;3.90;;
46983;SDS011;34732;52.112;9.366;2023-08-17T07:25:54;7.32;;;4.55;;
46983;SDS011;34732;52.112;9.366;2023-08-17T07:29:17;5.88;;;4.40;;
46983;SDS011;34732;52.112;9.366;2023-08-17T07:32:40;6.55;;;4.25;;
46983;SDS011;34732;52.112;9.366;2023-08-17T07:36:09;4.97;;;4.28;;
46983;SDS011;34732;52.112;9.366;2023-08-17T07:39:37;6.63;;;4.30;;
46983;SDS011;34732;52.112;9.366;2023-08-17T07:46:19;4.13;;;3.65;;
46983;SDS011;34732;52.112;9.366;2023-08-17T07:49:45;6.85;;;4.63;;
46983;SDS011;34732;52.112;9.366;2023-08-17T07:53:06;5.80;;;4.03;;
46983;SDS011;34732;52.112;9.366;2023-08-17T07:59:51;4.85;;;4.32;;
46983;SDS011;34732;52.112;9.366;2023-08-17T08:03:14;6.43;;;4.70;;
46983;SDS011;34732;52.112;9.366;2023-08-17T08:06:36;6.53;;;4.50;;
46983;SDS011;34732;52.112;9.366;2023-08-17T08:09:59;5.40;;;4.18;;
46983;SDS011;34732;52.112;9.366;2023-08-17T08:13:22;5.88;;;5.18;;
46983;SDS011;34732;52.112;9.366;2023-08-17T08:16:45;6.28;;;5.45;;
46983;SDS011;34732;52.112;9.366;2023-08-17T08:20:11;6.32;;;4.78;;
46983;SDS011;34732;52.112;9.366;2023-08-17T08:23:35;6.35;;;5.07;;
46983;SDS011;34732;52.112;9.366;2023-08-17T08:26:56;7.25;;;4.13;;
46983;SDS011;34732;52.112;9.366;2023-08-17T08:30:21;5.07;;;4.10;;
46983;SDS011;34732;52.112;9.366;2023-08-17T08:33:47;5.05;;;4.55;;
46983;SDS011;34732;52.112;9.366;2023-08-17T08:37:11;7.60;;;4.43;;
46983;SDS011;34732;52.112;9.366;2023-08-17T08:40:32;5.18;;;4.68;;
46983;SDS011;34732;52.112;9.366;2023-08-17T08:43:53;6.78;;;4.75;;
46983;SDS011;34732;52.112;9.366;2023-08-17T08:47:18;5.78;;;4.72;;
46983;SDS011;34732;52.112;9.366;2023-08-17T08:50:39;7.93;;;5.05;;
46983;SDS011;34732;52.112;9.366;2023-08-17T08:54:06;6.65;;;4.35;;
46983;SDS011;34732;52.112;9.366;2023-08-17T08:57:35;6.35;;;5.10;;
46983;SDS011;34732;52.112;9.366;2023-08-17T09:01:04;7.50;;;5.22;;
46983;SDS011;34732;52.112;9.366;2023-08-17T09:04:30;6.03;;;4.82;;
46983;SDS011;34732;52.112;9.366;2023-08-17T09:07:53;7.68;;;5.30;;
46983;SDS011;34732;52.112;9.366;2023-08-17T09:11:20;5.50;;;4.55;;
46983;SDS011;34732;52.112;9.366;2023-08-17T09:14:46;6.40;;;4.63;;
46983;SDS011;34732;52.112;9.366;2023-08-17T09:18:12;5.47;;;4.95;;
46983;SDS011;34732;52.112;9.366;2023-08-17T09:21:36;5.68;;;4.90;;
46983;SDS011;34732;52.112;9.366;2023-08-17T09:24:57;6.55;;;4.88;;
46983;SDS011;34732;52.112;9.366;2023-08-17T09:28:20;8.20;;;5.55;;
46983;SDS011;34732;52.112;9.366;2023-08-17T09:35:58;6.13;;;5.03;;
46983;SDS011;34732;52.112;9.366;2023-08-17T09:39:24;7.53;;;5.40;;
46983;SDS011;34732;52.112;9.366;2023-08-17T09:42:45;6.60;;;5.30;;
46983;SDS011;34732;52.112;9.366;2023-08-17T09:46:11;7.82;;;5.50;;
46983;SDS011;34732;52.112;9.366;2023-08-17T09:52:56;7.00;;;5.00;;
46983;SDS011;34732;52.112;9.366;2023-08-17T09:59:40;9.52;;;5.78;;
46983;SDS011;34732;52.112;9.366;2023-08-17T10:03:04;6.32;;;5.00;;
46983;SDS011;34732;52.112;9.366;2023-08-17T10:06:37;6.18;;;4.95;;
46983;SDS011;34732;52.112;9.366;2023-08-17T10:10:12;5.80;;;4.97;;
46983;SDS011;34732;52.112;9.366;2023-08-17T10:13:40;8.75;;;4.75;;
46983;SDS011;34732;52.112;9.366;2023-08-17T10:17:07;6.18;;;5.57;;
46983;SDS011;34732;52.112;9.366;2023-08-17T10:20:35;6.50;;;5.13;;
46983;SDS011;34732;52.112;9.366;2023-08-17T10:24:00;6.88;;;4.55;;
46983;SDS011;34732;52.112;9.366;2023-08-17T10:27:26;6.60;;;4.63;;
46983;SDS011;34732;52.112;9.366;2023-08-17T10:30:49;6.50;;;4.72;;
46983;SDS011;34732;52.112;9.366;2023-08-17T10:34:11;6.07;;;4.80;;
46983;SDS011;34732;52.112;9.366;2023-08-17T10:37:36;5.75;;;4.72;;
46983;SDS011;34732;52.112;9.366;2023-08-17T10:44:50;6.72;;;5.13;;
46983;SDS011;34732;52.112;9.366;2023-08-17T10:51:37;5.97;;;4.35;;
46983;SDS011;34732;52.112;9.366;2023-08-17T10:55:04;9.82;;;4.85;;
46983;SDS011;34732;52.112;9.366;2023-08-17T10:58:33;6.28;;;3.90;;
46983;SDS011;34732;52.112;9.366;2023-08-17T11:09:16;5.60;;;3.70;;
46983;SDS011;34732;52.112;9.366;2023-08-17T11:12:48;4.82;;;3.30;;
46983;SDS011;34732;52.112;9.366;2023-08-17T11:16:12;5.10;;;3.55;;
46983;SDS011;34732;52.112;9.366;2023-08-17T11:19:39;3.92;;;3.00;;
46983;SDS011;34732;52.112;9.366;2023-08-17T11:23:06;3.80;;;2.88;;
46983;SDS011;34732;52.112;9.366;2023-08-17T11:26:35;5.25;;;2.80;;
46983;SDS011;34732;52.112;9.366;2023-08-17T11:29:57;3.78;;;2.95;;
46983;SDS011;34732;52.112;9.366;2023-08-17T11:33:20;3.38;;;2.60;;
46983;SDS011;34732;52.112;9.366;2023-08-17T11:36:44;3.20;;;2.55;;
46983;SDS011;34732;52.112;9.366;2023-08-17T11:40:07;2.33;;;1.95;;
46983;SDS011;34732;52.112;9.366;2023-08-17T11:43:32;2.88;;;1.70;;
46983;SDS011;34732;52.112;9.366;2023-08-17T11:46:59;2.15;;;1.85;;
46983;SDS011;34732;52.112;9.366;2023-08-17T11:53:44;1.88;;;1.55;;
46983;SDS011;34732;52.112;9.366;2023-08-17T11:57:11;1.10;;;0.93;;
46983;SDS011;34732;52.112;9.366;2023-08-17T12:00:43;2.03;;;1.20;;
46983;SDS011;34732;52.112;9.366;2023-08-17T12:04:11;1.15;;;1.05;;
46983;SDS011;34732;52.112;9.366;2023-08-17T12:07:37;2.25;;;1.20;;
46983;SDS011;34732;52.112;9.366;2023-08-17T12:10:58;1.10;;;0.82;;
46983;SDS011;34732;52.112;9.366;2023-08-17T12:14:21;1.70;;;1.20;;
46983;SDS011;34732;52.112;9.366;2023-08-17T12:17:47;1.40;;;1.00;;
46983;SDS011;34732;52.112;9.366;2023-08-17T12:21:09;2.28;;;1.00;;
46983;SDS011;34732;52.112;9.366;2023-08-17T12:24:32;1.73;;;1.17;;
46983;SDS011;34732;52.112;9.366;2023-08-17T12:27:57;2.13;;;1.42;;
46983;SDS011;34732;52.112;9.366;2023-08-17T12:31:22;1.83;;;1.20;;
46983;SDS011;34732;52.112;9.366;2023-08-17T12:34:53;1.70;;;1.10;;
46983;SDS011;34732;52.112;9.366;2023-08-17T12:38:19;1.92;;;0.90;;
46983;SDS011;34732;52.112;9.366;2023-08-17T12:41:44;1.80;;;1.45;;
46983;SDS011;34732;52.112;9.366;2023-08-17T12:45:08;1.58;;;1.48;;
46983;SDS011;34732;52.112;9.366;2023-08-17T12:48:30;1.60;;;1.50;;
46983;SDS011;34732;52.112;9.366;2023-08-17T12:51:53;1.90;;;1.10;;
46983;SDS011;34732;52.112;9.366;2023-08-17T12:55:15;1.27;;;1.13;;
46983;SDS011;34732;52.112;9.366;2023-08-17T13:01:57;1.30;;;1.13;;
46983;SDS011;34732;52.112;9.366;2023-08-17T13:05:21;1.50;;;1.20;;
46983;SDS011;34732;52.112;9.366;2023-08-17T13:08:45;1.80;;;1.33;;
46983;SDS011;34732;52.112;9.366;2023-08-17T13:12:13;1.85;;;1.30;;
46983;SDS011;34732;52.112;9.366;2023-08-17T13:15:34;1.58;;;1.17;;
46983;SDS011;34732;52.112;9.366;2023-08-17T13:18:56;1.20;;;1.10;;
46983;SDS011;34732;52.112;9.366;2023-08-17T13:22:18;1.58;;;1.38;;
46983;SDS011;34732;52.112;9.366;2023-08-17T13:29:00;1.20;;;1.10;;
46983;SDS011;34732;52.112;9.366;2023-08-17T13:32:22;2.25;;;1.63;;
46983;SDS011;34732;52.112;9.366;2023-08-17T13:35:45;2.10;;;1.33;;
46983;SDS011;34732;52.112;9.366;2023-08-17T13:39:11;1.85;;;1.60;;
46983;SDS011;34732;52.112;9.366;2023-08-17T13:42:33;1.40;;;1.30;;
46983;SDS011;34732;52.112;9.366;2023-08-17T13:45:57;2.22;;;1.40;;
46983;SDS011;34732;52.112;9.366;2023-08-17T13:49:21;1.50;;;1.40;;
46983;SDS011;34732;52.112;9.366;2023-08-17T13:52:42;1.40;;;1.30;;
46983;SDS011;34732;52.112;9.366;2023-08-17T13:56:04;3.22;;;1.65;;
46983;SDS011;34732;52.112;9.366;2023-08-17T13:59:25;1.90;;;1.80;;
46983;SDS011;34732;52.112;9.366;2023-08-17T14:02:50;1.63;;;1.52;;
46983;SDS011;34732;52.112;9.366;2023-08-17T14:06:14;2.33;;;2.00;;
46983;SDS011;34732;52.112;9.366;2023-08-17T14:09:36;3.47;;;1.90;;
46983;SDS011;34732;52.112;9.366;2023-08-17T14:16:20;3.67;;;2.25;;
46983;SDS011;34732;52.112;9.366;2023-08-17T14:19:49;4.90;;;2.28;;
46983;SDS011;34732;52.112;9.366;2023-08-17T14:23:10;4.30;;;2.63;;
46983;SDS011;34732;52.112;9.366;2023-08-17T14:26:34;3.05;;;2.40;;
46983;SDS011;34732;52.112;9.366;2023-08-17T14:30:00;5.15;;;2.80;;
46983;SDS011;34732;52.112;9.366;2023-08-17T14:33:26;3.03;;;2.40;;
46983;SDS011;34732;52.112;9.366;2023-08-17T14:36:52;2.97;;;2.20;;
46983;SDS011;34732;52.112;9.366;2023-08-17T14:40:20;2.78;;;2.45;;
46983;SDS011;34732;52.112;9.366;2023-08-17T14:43:44;3.10;;;2.53;;
46983;SDS011;34732;52.112;9.366;2023-08-17T14:47:09;3.78;;;2.53;;
46983;SDS011;34732;52.112;9.366;2023-08-17T14:50:35;4.38;;;2.75;;
46983;SDS011;34732;52.112;9.366;2023-08-17T14:54:06;3.67;;;2.65;;
46983;SDS011;34732;52.112;9.366;2023-08-17T14:57:30;4.13;;;3.17;;
46983;SDS011;34732;52.112;9.366;2023-08-17T15:00:56;3.15;;;2.60;;
46983;SDS011;34732;52.112;9.366;2023-08-17T15:04:22;5.55;;;2.72;;
46983;SDS011;34732;52.112;9.366;2023-08-17T15:07:53;3.20;;;2.45;;
46983;SDS011;34732;52.112;9.366;2023-08-17T15:11:20;4.47;;;2.50;;
46983;SDS011;34732;52.112;9.366;2023-08-17T15:14:41;5.40;;;3.13;;
46983;SDS011;34732;52.112;9.366;2023-08-17T15:18:02;4.35;;;2.60;;
46983;SDS011;34732;52.112;9.366;2023-08-17T15:21:30;4.10;;;2.80;;
46983;SDS011;34732;52.112;9.366;2023-08-17T15:24:55;3.30;;;2.58;;
46983;SDS011;34732;52.112;9.366;2023-08-17T15:28:18;3.28;;;2.83;;
46983;SDS011;34732;52.112;9.366;2023-08-17T15:31:42;4.20;;;2.80;;
46983;SDS011;34732;52.112;9.366;2023-08-17T15:35:09;3.53;;;3.05;;
46983;SDS011;34732;52.112;9.366;2023-08-17T15:38:36;2.80;;;2.38;;
46983;SDS011;34732;52.112;9.366;2023-08-17T15:42:03;3.95;;;2.75;;
46983;SDS011;34732;52.112;9.366;2023-08-17T15:45:26;3.33;;;2.85;;
46983;SDS011;34732;52.112;9.366;2023-08-17T15:48:49;3.20;;;2.58;;
46983;SDS011;34732;52.112;9.366;2023-08-17T15:52:13;4.85;;;3.17;;
46983;SDS011;34732;52.112;9.366;2023-08-17T15:55:37;3.22;;;2.78;;
46983;SDS011;34732;52.112;9.366;2023-08-17T15:59:00;4.80;;;2.92;;
46983;SDS011;34732;52.112;9.366;2023-08-17T16:02:29;4.75;;;2.95;;
46983;SDS011;34732;52.112;9.366;2023-08-17T16:05:53;4.07;;;2.88;;
46983;SDS011;34732;52.112;9.366;2023-08-17T16:09:21;6.53;;;3.33;;
46983;SDS011;34732;52.112;9.366;2023-08-17T16:12:42;4.28;;;3.47;;
46983;SDS011;34732;52.112;9.366;2023-08-17T16:16:06;4.88;;;3.50;;
46983;SDS011;34732;52.112;9.366;2023-08-17T16:19:30;6.55;;;3.60;;
46983;SDS011;34732;52.112;9.366;2023-08-17T16:22:56;5.80;;;3.75;;
46983;SDS011;34732;52.112;9.366;2023-08-17T16:26:22;4.22;;;2.88;;
46983;SDS011;34732;52.112;9.366;2023-08-17T16:29:48;4.18;;;2.80;;
46983;SDS011;34732;52.112;9.366;2023-08-17T16:36:37;4.80;;;3.33;;
46983;SDS011;34732;52.112;9.366;2023-08-17T16:39:58;4.00;;;3.22;;
46983;SDS011;34732;52.112;9.366;2023-08-17T16:43:22;4.13;;;3.35;;
46983;SDS011;34732;52.112;9.366;2023-08-17T16:46:46;3.78;;;3.38;;
46983;SDS011;34732;52.112;9.366;2023-08-17T16:50:13;5.53;;;3.50;;
46983;SDS011;34732;52.112;9.366;2023-08-17T16:53:37;4.07;;;3.22;;
46983;SDS011;34732;52.112;9.366;2023-08-17T16:57:01;4.70;;;3.50;;
46983;SDS011;34732;52.112;9.366;2023-08-17T17:00:22;6.20;;;3.25;;
46983;SDS011;34732;52.112;9.366;2023-08-17T17:03:46;5.10;;;2.97;;
46983;SDS011;34732;52.112;9.366;2023-08-17T17:07:11;4.65;;;3.22;;
46983;SDS011;34732;52.112;9.366;2023-08-17T17:10:33;4.43;;;3.55;;
46983;SDS011;34732;52.112;9.366;2023-08-17T17:13:56;5.03;;;3.30;;
46983;SDS011;34732;52.112;9.366;2023-08-17T17:17:20;4.50;;;3.47;;
46983;SDS011;34732;52.112;9.366;2023-08-17T17:20:43;5.05;;;3.38;;
46983;SDS011;34732;52.112;9.366;2023-08-17T17:24:07;5.50;;;3.78;;
46983;SDS011;34732;52.112;9.366;2023-08-17T17:27:30;7.65;;;3.40;;
46983;SDS011;34732;52.112;9.366;2023-08-17T17:30:52;5.68;;;3.58;;
46983;SDS011;34732;52.112;9.366;2023-08-17T17:34:15;3.60;;;3.08;;
46983;SDS011;34732;52.112;9.366;2023-08-17T17:37:38;4.60;;;3.15;;
46983;SDS011;34732;52.112;9.366;2023-08-17T17:41:07;9.55;;;4.05;;
46983;SDS011;34732;52.112;9.366;2023-08-17T17:44:28;5.50;;;3.00;;
46983;SDS011;34732;52.112;9.366;2023-08-17T17:47:51;5.25;;;3.63;;
46983;SDS011;34732;52.112;9.366;2023-08-17T17:51:17;7.60;;;3.53;;
46983;SDS011;34732;52.112;9.366;2023-08-17T17:54:38;4.38;;;3.60;;
46983;SDS011;34732;52.112;9.366;2023-08-17T17:57:59;4.85;;;3.38;;
46983;SDS011;34732;52.112;9.366;2023-08-17T18:01:23;5.63;;;3.55;;
46983;SDS011;34732;52.112;9.366;2023-08-17T18:04:47;5.35;;;3.58;;
46983;SDS011;34732;52.112;9.366;2023-08-17T18:08:14;3.67;;;3.15;;
46983;SDS011;34732;52.112;9.366;2023-08-17T18:11:40;5.50;;;3.53;;
46983;SDS011;34732;52.112;9.366;2023-08-17T18:15:04;3.72;;;2.92;;
46983;SDS011;34732;52.112;9.366;2023-08-17T18:18:26;6.95;;;3.80;;
46983;SDS011;34732;52.112;9.366;2023-08-17T18:21:52;5.20;;;3.60;;
46983;SDS011;34732;52.112;9.366;2023-08-17T18:25:15;3.60;;;2.95;;
46983;SDS011;34732;52.112;9.366;2023-08-17T18:28:39;7.38;;;3.70;;
46983;SDS011;34732;52.112;9.366;2023-08-17T18:32:07;5.22;;;2.90;;
46983;SDS011;34732;52.112;9.366;2023-08-17T18:35:30;7.22;;;3.08;;
46983;SDS011;34732;52.112;9.366;2023-08-17T18:38:56;7.15;;;2.80;;
46983;SDS011;34732;52.112;9.366;2023-08-17T18:42:17;7.50;;;3.38;;
46983;SDS011;34732;52.112;9.366;2023-08-17T18:45:43;7.78;;;3.03;;
46983;SDS011;34732;52.112;9.366;2023-08-17T18:49:04;6.82;;;3.33;;
46983;SDS011;34732;52.112;9.366;2023-08-17T18:52:30;5.35;;;2.88;;
46983;SDS011;34732;52.112;9.366;2023-08-17T18:55:54;5.97;;;2.90;;
46983;SDS011;34732;52.112;9.366;2023-08-17T18:59:17;4.05;;;2.80;;
46983;SDS011;34732;52.112;9.366;2023-08-17T19:02:40;4.93;;;3.08;;
46983;SDS011;34732;52.112;9.366;2023-08-17T19:06:04;6.85;;;2.72;;
46983;SDS011;34732;52.112;9.366;2023-08-17T19:12:46;8.20;;;3.10;;
46983;SDS011;34732;52.112;9.366;2023-08-17T19:16:09;4.28;;;3.05;;
46983;SDS011;34732;52.112;9.366;2023-08-17T19:22:52;8.13;;;5.10;;
46983;SDS011;34732;52.112;9.366;2023-08-17T19:26:20;13.10;;;6.95;;
46983;SDS011;34732;52.112;9.366;2023-08-17T19:29:43;12.43;;;7.10;;
46983;SDS011;34732;52.112;9.366;2023-08-17T19:36:28;9.65;;;6.72;;
